Valley, Washington
Current Conditions -  °F | °C
As of 6:31 PM on Thursday 20 Nov 2014 (Local Time) from KDEW Reporting Station
Haze Haze  
Wind Chill: -1°   Ceiling: 900
Heat Index: -1°   Visibility: 5mi
Dew Point: -2°   Wind: 3mph
Humidity: 92%   Direction: 340°NNW
Pressure: 30.02"   Gusts: NA
Location:  48.17°N, 117.73°W
Report Text: KDEW 210231Z AUTO 34003KT 5SM BR OVC009 M01/M02 A3002 RMK AO2 T10061017
Loading
Personal Weather Stations






























Interactive Weather Map New forecast layout! Learn more

10-Day Weather Forecast

Advertisements
Track Severe Weather on mobile